createdAt,value
2022-10-15T00:00:24.468Z,15.50
2022-10-15T00:02:55.764Z,15.51
2022-10-15T00:05:27.085Z,15.50
2022-10-15T00:07:58.361Z,15.50
2022-10-15T00:10:29.684Z,15.43
2022-10-15T00:15:38.139Z,15.43
2022-10-15T00:18:09.413Z,15.47
2022-10-15T00:20:41.905Z,15.45
2022-10-15T00:23:13.153Z,15.44
2022-10-15T00:25:44.414Z,15.44
2022-10-15T00:28:15.818Z,15.44
2022-10-15T00:30:47.060Z,15.44
2022-10-15T00:33:18.308Z,15.44
2022-10-15T00:36:01.576Z,15.44
2022-10-15T00:38:33.791Z,15.42
2022-10-15T00:41:06.925Z,15.41
2022-10-15T00:43:49.988Z,15.41
2022-10-15T00:46:35.099Z,15.40
2022-10-15T00:49:26.380Z,15.40
2022-10-15T00:52:03.009Z,15.40
2022-10-15T00:54:40.634Z,15.38
2022-10-15T00:57:13.261Z,15.38
2022-10-15T00:59:50.789Z,15.31
2022-10-15T01:02:22.339Z,15.34
2022-10-15T01:04:55.673Z,15.30
2022-10-15T01:07:27.068Z,15.30
2022-10-15T01:09:58.571Z,15.27
2022-10-15T01:12:45.165Z,15.24
2022-10-15T01:15:16.351Z,15.20
2022-10-15T01:17:55.116Z,15.10
2022-10-15T01:20:49.938Z,15.02
2022-10-15T01:23:39.427Z,14.92
2022-10-15T01:26:24.480Z,14.82
2022-10-15T01:29:31.224Z,14.72
2022-10-15T01:32:11.471Z,14.61
2022-10-15T01:35:19.834Z,14.52
2022-10-15T01:38:09.813Z,14.47
2022-10-15T01:40:47.041Z,14.43
2022-10-15T01:43:28.992Z,14.44
2022-10-15T01:46:09.279Z,14.41
2022-10-15T01:48:41.738Z,14.35
2022-10-15T01:51:16.834Z,14.30
2022-10-15T01:53:50.469Z,14.31
2022-10-15T01:56:24.334Z,14.29
2022-10-15T01:58:56.594Z,14.28
2022-10-15T02:01:28.460Z,14.20
2022-10-15T02:03:59.871Z,14.23
2022-10-15T02:06:43.926Z,14.22
2022-10-15T02:09:28.332Z,14.22
2022-10-15T02:12:27.268Z,14.20
2022-10-15T02:15:27.456Z,14.13
2022-10-15T02:18:06.123Z,14.02
2022-10-15T02:20:51.046Z,13.90
2022-10-15T02:23:37.572Z,13.81
2022-10-15T02:26:12.153Z,13.72
2022-10-15T02:28:50.261Z,13.72
2022-10-15T02:31:23.768Z,13.75
2022-10-15T02:34:00.726Z,13.78
2022-10-15T02:36:32.784Z,13.78
2022-10-15T02:39:05.404Z,13.79
2022-10-15T02:41:36.981Z,13.82
2022-10-15T02:44:08.324Z,13.86
2022-10-15T02:46:39.638Z,13.81
2022-10-15T02:49:10.911Z,13.92
2022-10-15T02:51:42.205Z,13.91
2022-10-15T02:54:13.497Z,13.88
2022-10-15T02:56:44.772Z,13.92
2022-10-15T02:59:16.201Z,13.91
2022-10-15T03:01:47.602Z,13.89
2022-10-15T03:04:18.862Z,13.88
2022-10-15T03:06:50.790Z,13.89
2022-10-15T03:09:22.106Z,13.87
2022-10-15T03:11:53.369Z,13.93
2022-10-15T03:14:24.786Z,13.95
2022-10-15T03:16:56.113Z,13.97
2022-10-15T03:19:27.378Z,14.01
2022-10-15T03:21:58.706Z,13.85
2022-10-15T03:24:30.458Z,14.00
2022-10-15T03:27:01.810Z,14.00
2022-10-15T03:29:33.082Z,14.02
2022-10-15T03:32:04.557Z,13.97
2022-10-15T03:34:35.824Z,14.02
2022-10-15T03:37:07.104Z,14.00
2022-10-15T03:39:38.354Z,14.00
2022-10-15T03:42:09.625Z,14.00
2022-10-15T03:44:41.104Z,14.00
2022-10-15T03:47:12.452Z,13.99
2022-10-15T03:49:43.783Z,13.98
2022-10-15T03:52:15.566Z,13.99
2022-10-15T03:54:46.833Z,14.01
2022-10-15T03:57:18.154Z,13.99
2022-10-15T03:59:49.536Z,13.99
2022-10-15T04:02:20.995Z,13.98
2022-10-15T04:04:53.418Z,13.98
2022-10-15T04:07:25.225Z,13.98
2022-10-15T04:09:56.481Z,13.93
2022-10-15T04:12:27.873Z,13.90
2022-10-15T04:14:59.143Z,13.96
2022-10-15T04:17:30.508Z,13.96
2022-10-15T04:20:01.857Z,13.92
2022-10-15T04:22:33.184Z,13.90
2022-10-15T04:25:05.283Z,13.87
2022-10-15T04:27:36.932Z,13.86
2022-10-15T04:30:08.936Z,13.83
2022-10-15T04:32:40.302Z,13.88
2022-10-15T04:35:11.886Z,13.75
2022-10-15T04:37:43.151Z,13.91
2022-10-15T04:40:15.098Z,13.91
2022-10-15T04:42:46.356Z,13.88
2022-10-15T04:45:17.852Z,13.91
2022-10-15T04:47:49.251Z,13.91
2022-10-15T04:50:20.500Z,13.85
2022-10-15T04:52:51.794Z,13.88
2022-10-15T04:55:23.040Z,13.85
2022-10-15T04:57:54.381Z,13.77
2022-10-15T05:00:25.803Z,13.79
2022-10-15T05:02:57.102Z,13.76
2022-10-15T05:05:28.346Z,13.81
2022-10-15T05:08:04.384Z,13.79
2022-10-15T05:10:35.755Z,13.73
2022-10-15T05:13:07.191Z,13.78
2022-10-15T05:15:38.440Z,13.78
2022-10-15T05:18:09.846Z,13.71
2022-10-15T05:20:41.093Z,13.78
2022-10-15T05:23:12.363Z,13.77
2022-10-15T05:25:43.630Z,13.77
2022-10-15T05:28:14.882Z,13.77
2022-10-15T05:30:46.226Z,13.78
2022-10-15T05:33:17.504Z,13.78
2022-10-15T05:35:48.814Z,13.78
2022-10-15T05:38:20.082Z,13.79
2022-10-15T05:40:51.320Z,13.75
2022-10-15T05:43:22.682Z,13.83
2022-10-15T05:45:54.957Z,13.85
2022-10-15T05:48:26.228Z,13.86
2022-10-15T05:51:10.819Z,13.88
2022-10-15T05:53:43.213Z,13.89
2022-10-15T05:56:16.663Z,13.90
2022-10-15T05:58:47.962Z,13.92
2022-10-15T06:01:19.792Z,13.88
2022-10-15T06:03:51.354Z,13.90
2022-10-15T06:06:25.048Z,13.91
2022-10-15T06:08:58.448Z,13.89
2022-10-15T06:11:29.784Z,13.93
2022-10-15T06:14:01.032Z,13.89
2022-10-15T06:16:33.262Z,13.98
2022-10-15T06:19:04.680Z,13.96
2022-10-15T06:21:35.933Z,13.96
2022-10-15T06:24:09.922Z,13.96
2022-10-15T06:26:41.588Z,13.99
2022-10-15T06:29:12.936Z,14.00
2022-10-15T06:31:44.197Z,14.04
2022-10-15T06:34:15.549Z,14.07
2022-10-15T06:36:46.797Z,14.06
2022-10-15T06:39:18.194Z,14.01
2022-10-15T06:41:49.451Z,14.12
2022-10-15T06:44:20.797Z,14.10
2022-10-15T06:46:52.079Z,14.15
2022-10-15T06:49:23.362Z,14.21
2022-10-15T06:51:55.458Z,14.27
2022-10-15T06:54:28.737Z,14.17
2022-10-15T06:57:00.000Z,14.37
2022-10-15T06:59:31.290Z,14.42
2022-10-15T07:02:02.682Z,14.48
2022-10-15T07:04:34.109Z,14.53
2022-10-15T07:07:05.834Z,14.58
2022-10-15T07:09:37.290Z,14.67
2022-10-15T07:12:09.131Z,14.61
2022-10-15T07:14:42.405Z,14.73
2022-10-15T07:17:13.982Z,14.82
2022-10-15T07:19:45.740Z,14.84
2022-10-15T07:22:17.170Z,14.86
2022-10-15T07:24:48.421Z,14.90
2022-10-15T07:27:20.673Z,14.94
2022-10-15T07:29:52.088Z,14.99
2022-10-15T07:32:23.708Z,15.03
2022-10-15T07:34:55.167Z,15.09
2022-10-15T07:37:26.725Z,15.14
2022-10-15T07:39:58.008Z,15.10
2022-10-15T07:42:29.261Z,15.16
2022-10-15T07:45:00.592Z,15.20
2022-10-15T07:47:31.879Z,15.26
2022-10-15T07:50:03.204Z,15.33
2022-10-15T07:52:34.551Z,15.37
2022-10-15T07:55:07.163Z,15.43
2022-10-15T07:57:39.029Z,15.49
2022-10-15T08:00:10.935Z,15.54
2022-10-15T08:02:42.251Z,15.65
2022-10-15T08:05:13.537Z,15.70
2022-10-15T08:07:44.863Z,15.75
2022-10-15T08:10:16.298Z,15.76
2022-10-15T08:12:47.558Z,15.79
2022-10-15T08:15:19.024Z,15.86
2022-10-15T08:17:50.297Z,15.92
2022-10-15T08:20:21.633Z,15.95
2022-10-15T08:22:52.938Z,15.92
2022-10-15T08:25:24.657Z,15.92
2022-10-15T08:27:56.378Z,15.94
2022-10-15T08:30:27.844Z,15.93
2022-10-15T08:32:59.099Z,15.93
2022-10-15T08:35:35.162Z,15.95
2022-10-15T08:38:06.370Z,16.01
2022-10-15T08:40:38.380Z,16.06
2022-10-15T08:43:39.042Z,16.18
2022-10-15T08:48:57.957Z,16.54
2022-10-15T08:51:44.173Z,16.69
2022-10-15T08:54:18.503Z,16.83
2022-10-15T08:57:22.234Z,16.92
2022-10-15T09:00:05.218Z,17.01
2022-10-15T09:02:58.002Z,17.04
2022-10-15T09:05:42.902Z,16.97
2022-10-15T09:08:45.335Z,16.98
2022-10-15T09:11:43.986Z,17.03
2022-10-15T09:14:27.505Z,17.00
2022-10-15T09:17:04.392Z,16.93
2022-10-15T09:19:37.578Z,16.94
2022-10-15T09:22:14.743Z,16.97
2022-10-15T09:24:46.354Z,16.94
2022-10-15T09:27:34.909Z,17.03
2022-10-15T09:30:30.222Z,17.01
2022-10-15T09:33:17.740Z,17.12
2022-10-15T09:35:56.784Z,17.21
2022-10-15T09:38:53.479Z,17.28
2022-10-15T09:42:06.545Z,17.41
2022-10-15T09:44:41.644Z,17.57
2022-10-15T09:47:31.140Z,17.66
2022-10-15T09:50:07.556Z,17.70
2022-10-15T09:53:09.791Z,17.70
2022-10-15T09:55:47.579Z,17.70
2022-10-15T09:58:25.738Z,17.83
2022-10-15T10:01:04.603Z,18.06
2022-10-15T10:03:36.967Z,18.24
2022-10-15T10:06:13.686Z,18.43
2022-10-15T10:08:54.385Z,18.51
2022-10-15T10:11:27.028Z,18.58
2022-10-15T10:14:00.681Z,18.60
2022-10-15T10:16:33.715Z,18.72
2022-10-15T10:19:15.448Z,18.88
2022-10-15T10:21:46.767Z,18.93
2022-10-15T10:24:25.877Z,19.09
2022-10-15T10:26:58.226Z,19.17
2022-10-15T10:29:40.192Z,19.25
2022-10-15T10:32:21.596Z,19.41
2022-10-15T10:34:53.990Z,19.41
2022-10-15T10:37:26.063Z,19.60
2022-10-15T10:40:00.411Z,19.71
2022-10-15T10:42:34.430Z,19.83
2022-10-15T10:45:22.307Z,19.95
2022-10-15T10:47:53.948Z,20.01
2022-10-15T10:50:40.545Z,20.03
2022-10-15T10:53:21.810Z,19.97
2022-10-15T10:55:55.350Z,20.12
2022-10-15T10:58:30.930Z,20.09
2022-10-15T11:01:02.236Z,19.99
2022-10-15T11:03:38.292Z,19.98
2022-10-15T11:06:21.865Z,19.95
2022-10-15T11:09:06.922Z,20.07
2022-10-15T11:11:48.797Z,20.08
2022-10-15T11:14:51.851Z,20.09
2022-10-15T11:17:44.174Z,20.15
2022-10-15T11:20:44.233Z,20.12
2022-10-15T11:23:47.031Z,20.09
2022-10-15T11:26:52.066Z,20.15
2022-10-15T11:29:49.525Z,20.36
2022-10-15T11:33:07.032Z,20.60
2022-10-15T11:36:05.906Z,20.68
2022-10-15T11:39:16.308Z,20.64
2022-10-15T11:42:24.006Z,20.59
2022-10-15T11:45:01.277Z,20.50
2022-10-15T11:47:58.153Z,20.36
2022-10-15T11:50:45.568Z,20.31
2022-10-15T11:53:38.568Z,20.26
2022-10-15T11:56:18.898Z,20.35
2022-10-15T11:59:19.457Z,20.49
2022-10-15T12:02:05.081Z,20.54
2022-10-15T12:04:44.285Z,20.64
2022-10-15T12:07:21.825Z,20.61
2022-10-15T12:09:59.813Z,20.59
2022-10-15T12:12:41.265Z,20.56
2022-10-15T12:15:39.306Z,20.55
2022-10-15T12:18:29.158Z,20.42
2022-10-15T12:21:00.549Z,20.47
2022-10-15T12:23:34.563Z,20.62
2022-10-15T12:26:28.033Z,20.80
2022-10-15T12:29:03.256Z,20.99
2022-10-15T12:31:49.888Z,21.14
2022-10-15T12:34:28.544Z,21.20
2022-10-15T12:37:03.306Z,21.21
2022-10-15T12:39:51.696Z,21.02
2022-10-15T12:42:39.292Z,20.88
2022-10-15T12:45:22.189Z,20.83
2022-10-15T12:47:55.930Z,20.79
2022-10-15T12:50:31.058Z,20.75
2022-10-15T12:53:32.592Z,20.75
2022-10-15T12:56:13.589Z,20.69
2022-10-15T12:58:47.508Z,20.63
2022-10-15T13:01:18.766Z,20.60
2022-10-15T13:03:50.281Z,20.50
2022-10-15T13:06:21.789Z,20.43
2022-10-15T13:09:20.870Z,20.42
2022-10-15T13:11:54.210Z,20.40
2022-10-15T13:14:33.456Z,20.36
2022-10-15T13:17:14.647Z,20.40
2022-10-15T13:20:08.043Z,20.33
2022-10-15T13:22:39.324Z,20.32
2022-10-15T13:25:17.780Z,20.35
2022-10-15T13:27:49.024Z,20.38
2022-10-15T13:30:20.350Z,20.47
2022-10-15T13:32:53.908Z,20.58
2022-10-15T13:35:29.527Z,20.71
2022-10-15T13:38:03.355Z,20.73
2022-10-15T13:40:34.769Z,20.73
2022-10-15T13:43:17.292Z,20.78
2022-10-15T13:45:53.578Z,20.88
2022-10-15T13:48:27.858Z,20.83
2022-10-15T13:51:04.324Z,20.78
2022-10-15T13:53:40.084Z,20.78
2022-10-15T13:56:29.818Z,20.76
2022-10-15T13:59:02.381Z,20.73
2022-10-15T14:01:34.814Z,20.74
2022-10-15T14:04:16.995Z,20.73
2022-10-15T14:07:04.193Z,20.74
2022-10-15T14:09:38.362Z,20.70
2022-10-15T14:12:11.334Z,20.74
2022-10-15T14:14:46.735Z,20.61
2022-10-15T14:17:24.109Z,20.37
2022-10-15T14:20:25.895Z,20.13
2022-10-15T14:22:53.516Z,19.88
2022-10-15T14:25:26.111Z,19.71
2022-10-15T14:27:57.485Z,19.53
2022-10-15T14:30:33.013Z,19.62
2022-10-15T14:33:04.552Z,19.64
2022-10-15T14:35:37.176Z,19.67
2022-10-15T14:38:08.381Z,19.70
2022-10-15T14:40:39.664Z,19.75
2022-10-15T14:43:17.048Z,19.79
2022-10-15T14:45:51.417Z,19.81
2022-10-15T14:48:37.130Z,19.80
2022-10-15T14:51:23.804Z,19.78
2022-10-15T14:53:55.511Z,19.67
2022-10-15T14:56:32.964Z,19.72
2022-10-15T14:59:04.469Z,19.68
2022-10-15T15:01:35.829Z,19.64
2022-10-15T15:04:38.081Z,19.46
2022-10-15T15:07:16.433Z,19.27
2022-10-15T15:09:49.117Z,19.18
2022-10-15T15:12:27.793Z,19.15
2022-10-15T15:14:59.717Z,19.07
2022-10-15T15:17:31.190Z,18.96
2022-10-15T15:22:40.253Z,18.79
2022-10-15T15:25:28.209Z,18.64
2022-10-15T15:28:00.595Z,18.60
2022-10-15T15:30:34.350Z,18.59
2022-10-15T15:33:05.746Z,18.54
2022-10-15T15:35:44.466Z,18.45
2022-10-15T15:38:16.096Z,18.37
2022-10-15T15:40:48.805Z,18.34
2022-10-15T15:43:20.148Z,18.27
2022-10-15T15:45:51.487Z,18.16
2022-10-15T15:48:22.821Z,18.13
2022-10-15T15:50:55.769Z,18.07
2022-10-15T15:53:27.115Z,17.99
2022-10-15T15:55:58.558Z,17.82
2022-10-15T15:58:29.818Z,17.82
2022-10-15T16:01:01.094Z,17.73
2022-10-15T16:03:32.395Z,17.61
2022-10-15T16:06:07.435Z,17.51
2022-10-15T16:08:38.751Z,17.42
2022-10-15T16:11:10.058Z,17.31
2022-10-15T16:13:42.960Z,17.26
2022-10-15T16:16:14.218Z,17.23
2022-10-15T16:18:45.574Z,17.17
2022-10-15T16:21:24.783Z,17.20
2022-10-15T16:23:56.113Z,17.19
2022-10-15T16:26:27.613Z,17.18
2022-10-15T16:28:59.498Z,17.16
2022-10-15T16:31:33.166Z,17.15
2022-10-15T16:34:04.769Z,17.10
2022-10-15T16:36:36.298Z,17.09
2022-10-15T16:39:07.684Z,17.05
2022-10-15T16:41:38.976Z,17.00
2022-10-15T16:44:10.225Z,16.97
2022-10-15T16:46:41.542Z,16.90
2022-10-15T16:49:12.822Z,16.93
2022-10-15T16:51:44.090Z,16.92
2022-10-15T16:54:15.676Z,16.89
2022-10-15T16:56:50.460Z,16.85
2022-10-15T16:59:24.231Z,16.88
2022-10-15T17:01:55.807Z,16.88
2022-10-15T17:04:27.360Z,16.84
2022-10-15T17:06:58.662Z,16.81
2022-10-15T17:09:31.054Z,16.78
2022-10-15T17:12:02.323Z,16.75
2022-10-15T17:14:33.634Z,16.71
2022-10-15T17:17:05.024Z,16.70
2022-10-15T17:19:36.338Z,16.70
2022-10-15T17:22:07.611Z,16.71
2022-10-15T17:24:39.275Z,16.69
2022-10-15T17:27:10.585Z,16.70
2022-10-15T17:29:42.005Z,16.66
2022-10-15T17:32:13.282Z,16.68
2022-10-15T17:34:44.680Z,16.65
2022-10-15T17:37:16.092Z,16.62
2022-10-15T17:39:47.501Z,16.59
2022-10-15T17:42:19.109Z,16.57
2022-10-15T17:44:50.718Z,16.57
2022-10-15T17:47:22.051Z,16.56
2022-10-15T17:49:53.342Z,16.56
2022-10-15T17:52:24.946Z,16.56
2022-10-15T17:54:56.219Z,16.55
2022-10-15T17:57:28.102Z,16.55
2022-10-15T17:59:59.999Z,16.41
2022-10-15T18:02:31.361Z,16.54
2022-10-15T18:05:02.792Z,16.52
2022-10-15T18:07:34.752Z,16.55
2022-10-15T18:10:07.290Z,16.50
2022-10-15T18:12:38.544Z,16.42
2022-10-15T18:15:10.401Z,16.34
2022-10-15T18:17:41.676Z,16.24
2022-10-15T18:20:14.396Z,16.07
2022-10-15T18:22:45.688Z,16.13
2022-10-15T18:25:17.349Z,16.12
2022-10-15T18:27:48.596Z,16.07
2022-10-15T18:30:19.947Z,16.18
2022-10-15T18:32:53.235Z,16.23
2022-10-15T18:35:27.191Z,16.21
2022-10-15T18:37:58.486Z,16.18
2022-10-15T18:40:40.892Z,16.10
2022-10-15T18:43:15.034Z,16.01
2022-10-15T18:45:47.605Z,15.97
2022-10-15T18:48:18.980Z,15.94
2022-10-15T18:50:52.673Z,15.91
2022-10-15T18:53:25.545Z,15.89
2022-10-15T18:55:56.861Z,15.86
2022-10-15T18:58:28.149Z,15.87
2022-10-15T19:01:39.103Z,15.89
2022-10-15T19:04:13.792Z,15.92
2022-10-15T19:06:48.405Z,15.95
2022-10-15T19:09:26.193Z,15.97
2022-10-15T19:11:58.465Z,15.96
2022-10-15T19:14:29.821Z,15.93
2022-10-15T19:17:01.186Z,15.89
2022-10-15T19:19:32.601Z,15.82
2022-10-15T19:22:04.189Z,15.80
2022-10-15T19:24:35.541Z,15.78
2022-10-15T19:27:06.955Z,15.80
2022-10-15T19:29:39.163Z,15.72
2022-10-15T19:32:10.898Z,15.86
2022-10-15T19:34:42.303Z,15.86
2022-10-15T19:37:13.545Z,15.83
2022-10-15T19:39:48.220Z,15.79
2022-10-15T19:42:19.529Z,15.77
2022-10-15T19:44:50.797Z,15.75
2022-10-15T19:47:22.089Z,15.76
2022-10-15T19:49:54.906Z,15.80
2022-10-15T19:52:26.189Z,15.86
2022-10-15T19:54:57.535Z,15.95
2022-10-15T19:57:28.924Z,16.03
2022-10-15T20:00:01.995Z,16.10
2022-10-15T20:02:33.254Z,16.15
2022-10-15T20:05:04.948Z,16.19
2022-10-15T20:07:36.496Z,16.21
2022-10-15T20:10:08.593Z,16.23
2022-10-15T20:12:40.136Z,16.21
2022-10-15T20:15:11.693Z,16.16
2022-10-15T20:17:43.360Z,16.21
2022-10-15T20:20:15.082Z,16.23
2022-10-15T20:22:46.453Z,16.20
2022-10-15T20:25:17.728Z,16.28
2022-10-15T20:27:49.025Z,16.31
2022-10-15T20:30:20.434Z,16.34
2022-10-15T20:32:51.681Z,16.35
2022-10-15T20:35:23.163Z,16.38
2022-10-15T20:37:54.409Z,16.39
2022-10-15T20:40:25.815Z,16.30
2022-10-15T20:42:57.130Z,16.32
2022-10-15T20:45:34.415Z,16.29
2022-10-15T20:48:07.682Z,16.27
2022-10-15T20:50:39.138Z,16.20
2022-10-15T20:53:10.531Z,16.16
2022-10-15T20:55:41.902Z,16.10
2022-10-15T20:58:13.416Z,16.09
2022-10-15T21:00:44.788Z,16.03
2022-10-15T21:03:16.045Z,15.99
2022-10-15T21:05:47.309Z,15.94
2022-10-15T21:08:18.651Z,15.84
2022-10-15T21:10:50.076Z,15.83
2022-10-15T21:13:21.812Z,15.78
2022-10-15T21:15:58.118Z,15.72
2022-10-15T21:18:29.622Z,15.66
2022-10-15T21:21:12.196Z,15.59
2022-10-15T21:23:43.719Z,15.52
2022-10-15T21:26:17.012Z,15.47
2022-10-15T21:28:48.370Z,15.42
2022-10-15T21:31:19.665Z,15.37
2022-10-15T21:33:51.588Z,15.28
2022-10-15T21:36:27.854Z,15.28
2022-10-15T21:39:02.266Z,15.24
2022-10-15T21:41:36.166Z,15.21
2022-10-15T21:44:08.569Z,15.18
2022-10-15T21:46:41.323Z,15.14
2022-10-15T21:49:13.839Z,15.10
2022-10-15T21:51:45.320Z,15.08
2022-10-15T21:54:16.606Z,15.01
2022-10-15T21:56:47.887Z,14.91
2022-10-15T21:59:19.179Z,14.97
2022-10-15T22:01:50.483Z,14.94
2022-10-15T22:04:21.833Z,14.89
2022-10-15T22:06:53.090Z,14.83
2022-10-15T22:09:24.452Z,14.75
2022-10-15T22:11:55.725Z,14.75
2022-10-15T22:14:27.009Z,14.71
2022-10-15T22:16:58.390Z,14.66
2022-10-15T22:19:29.641Z,14.63
2022-10-15T22:22:00.972Z,14.56
2022-10-15T22:24:32.760Z,14.54
2022-10-15T22:27:04.145Z,14.50
2022-10-15T22:29:35.619Z,14.47
2022-10-15T22:32:06.957Z,14.45
2022-10-15T22:34:38.220Z,14.42
2022-10-15T22:37:09.581Z,14.39
2022-10-15T22:39:40.902Z,14.35
2022-10-15T22:42:12.302Z,14.34
2022-10-15T22:44:43.561Z,14.29
2022-10-15T22:47:14.855Z,14.24
2022-10-15T22:49:46.121Z,14.22
2022-10-15T22:52:17.382Z,14.13
2022-10-15T22:54:50.150Z,14.10
2022-10-15T22:57:21.418Z,14.13
2022-10-15T22:59:55.924Z,14.07
2022-10-15T23:02:29.931Z,14.11
2022-10-15T23:05:01.229Z,14.07
2022-10-15T23:07:32.496Z,14.06
2022-10-15T23:10:04.266Z,14.05
2022-10-15T23:12:38.647Z,14.04
2022-10-15T23:15:10.093Z,14.02
2022-10-15T23:17:41.437Z,14.00
2022-10-15T23:20:12.714Z,13.97
2022-10-15T23:22:43.986Z,13.95
2022-10-15T23:25:15.374Z,13.94
2022-10-15T23:27:46.726Z,13.91
2022-10-15T23:30:24.732Z,13.87
2022-10-15T23:32:56.419Z,13.87
2022-10-15T23:35:27.759Z,13.86
2022-10-15T23:37:59.070Z,13.83
2022-10-15T23:40:30.545Z,13.82
2022-10-15T23:43:02.203Z,13.79
2022-10-15T23:45:35.741Z,13.77
2022-10-15T23:48:09.317Z,13.74
2022-10-15T23:50:40.637Z,13.73
2022-10-15T23:53:12.076Z,13.58
2022-10-15T23:55:43.635Z,13.65
2022-10-15T23:58:15.201Z,13.65
